Time;durP1;ratioP1;P1;durP2;ratioP2;P2;SDS_P1;SDS_P2;PMS_P1;PMS_P2;Temp;Humidity;BMP_temperature;BMP_pressure;BME280_temperature;BME280_humidity;BME280_pressure;Samples;Min_cycle;Max_cycle;Signal;HPM_P1;HPM_P2
2022/10/03 04:30:50;;;;;;;;;27.67;21.00;;;;;;;;5838408;22;45222;-59
2022/10/03 04:33:26;;;;;;;;;20.67;16.33;;;;;;;;5037949;28;46343;-60
2022/10/03 04:35:54;;;;;;;;;22.33;18.00;;;;;;;;5032211;28;45322;-60
2022/10/03 04:38:31;;;;;;;;;24.00;20.67;;;;;;;;5038061;28;45304;-59
2022/10/03 04:40:59;;;;;;;;;22.33;19.33;;;;;;;;5038031;28;45241;-60
2022/10/03 04:43:24;;;;;;;;;22.67;18.00;;;;;;;;5036251;28;46033;-60
2022/10/03 04:45:49;;;;;;;;;15.33;13.67;;;;;;;;5043280;28;45467;-59
2022/10/03 04:48:17;;;;;;;;;13.33;13.33;;;;;;;;5040324;28;45459;-60
2022/10/03 04:50:45;;;;;;;;;14.00;12.00;;;;;;;;5041617;28;45182;-60
2022/10/03 04:53:18;;;;;;;;;17.67;14.33;;;;;;;;5040557;28;45338;-60
2022/10/03 04:55:48;;;;;;;;;19.33;15.00;;;;;;;;5039520;28;45576;-60
2022/10/03 04:58:23;;;;;;;;;15.33;13.00;;;;;;;;5038250;28;45898;-59
2022/10/03 05:01:06;;;;;;;;;18.67;15.00;;;;;;;;5028094;28;45316;-59
2022/10/03 05:03:44;;;;;;;;;16.00;11.00;;;;;;;;5039945;28;45736;-60
2022/10/03 05:06:26;;;;;;;;;18.33;15.00;;;;;;;;5034904;28;45494;-60
2022/10/03 05:08:58;;;;;;;;;15.00;14.00;;;;;;;;5034713;28;45604;-59
2022/10/03 05:11:35;;;;;;;;;17.00;14.00;;;;;;;;5039918;28;45276;-59
2022/10/03 05:14:10;;;;;;;;;16.00;14.67;;;;;;;;5039506;28;45754;-59
2022/10/03 05:16:56;;;;;;;;;15.00;14.33;;;;;;;;5035833;28;45474;-59
2022/10/03 05:19:46;;;;;;;;;20.33;15.00;;;;;;;;5031972;28;45566;-60
2022/10/03 05:22:30;;;;;;;;;17.33;16.67;;;;;;;;5035334;28;45415;-60
2022/10/03 05:25:14;;;;;;;;;19.33;15.00;;;;;;;;5037006;28;45998;-60
2022/10/03 05:27:59;;;;;;;;;18.67;15.67;;;;;;;;5032158;28;45662;-60
2022/10/03 05:30:52;;;;;;;;;17.67;13.67;;;;;;;;5037824;28;45416;-62
2022/10/03 05:33:24;;;;;;;;;16.33;16.33;;;;;;;;5034882;28;45537;-60
2022/10/03 05:35:58;;;;;;;;;12.67;12.67;;;;;;;;5039019;28;45490;-60
2022/10/03 05:38:33;;;;;;;;;19.33;16.67;;;;;;;;5036415;28;45166;-60
2022/10/03 05:41:01;;;;;;;;;20.67;17.67;;;;;;;;5037075;28;45404;-61
2022/10/03 05:43:49;;;;;;;;;18.33;16.00;;;;;;;;5033987;28;45656;-61
2022/10/03 05:46:14;;;;;;;;;13.67;13.33;;;;;;;;5009689;28;46181;-61
2022/10/03 05:48:46;;;;;;;;;21.67;16.00;;;;;;;;5038810;28;45370;-62
2022/10/03 05:51:14;;;;;;;;;18.33;15.67;;;;;;;;5039157;28;45642;-61
2022/10/03 05:54:00;;;;;;;;;12.67;12.00;;;;;;;;5034673;28;45699;-61
2022/10/03 05:56:44;;;;;;;;;22.67;19.33;;;;;;;;5038636;28;46272;-61
2022/10/03 05:59:29;;;;;;;;;21.33;20.33;;;;;;;;5036907;28;45478;-61
2022/10/03 06:01:57;;;;;;;;;19.67;19.00;;;;;;;;5035832;28;45523;-60
2022/10/03 06:04:41;;;;;;;;;22.33;18.67;;;;;;;;5038665;28;45291;-60
2022/10/03 06:07:27;;;;;;;;;17.00;16.67;;;;;;;;5038650;28;47064;-60
2022/10/03 06:10:03;;;;;;;;;23.33;18.67;;;;;;;;5005354;28;45633;-61
2022/10/03 06:12:43;;;;;;;;;18.67;17.67;;;;;;;;5036437;28;46952;-60
2022/10/03 06:15:27;;;;;;;;;20.00;19.00;;;;;;;;5030269;28;45508;-60
2022/10/03 06:17:56;;;;;;;;;25.00;20.00;;;;;;;;5034518;28;45396;-60
2022/10/03 06:20:39;;;;;;;;;20.00;19.00;;;;;;;;5034801;28;45455;-60
2022/10/03 06:23:18;;;;;;;;;21.33;21.33;;;;;;;;5026555;28;45502;-60
2022/10/03 06:26:02;;;;;;;;;23.00;19.33;;;;;;;;5034027;28;45437;-60
2022/10/03 06:28:30;;;;;;;;;22.33;19.67;;;;;;;;5037504;28;46796;-60
2022/10/03 06:31:14;;;;;;;;;20.33;18.67;;;;;;;;5033944;28;45684;-61
2022/10/03 06:34:08;;;;;;;;;22.00;20.33;;;;;;;;5026077;28;45586;-61
2022/10/03 06:36:54;;;;;;;;;21.33;16.67;;;;;;;;4979796;28;45836;-60
2022/10/03 06:39:31;;;;;;;;;20.33;18.67;;;;;;;;5034986;28;47036;-61
2022/10/03 06:41:56;;;;;;;;;18.00;17.00;;;;;;;;5029123;28;46295;-61
2022/10/03 06:44:27;;;;;;;;;18.67;16.33;;;;;;;;5031051;28;45569;-61
2022/10/03 06:47:04;;;;;;;;;17.33;16.00;;;;;;;;5030689;28;45576;-61
2022/10/03 06:49:51;;;;;;;;;18.33;15.00;;;;;;;;5026397;28;46173;-61
2022/10/03 06:52:16;;;;;;;;;20.33;15.67;;;;;;;;5036083;28;45448;-61
2022/10/03 06:54:41;;;;;;;;;17.00;16.33;;;;;;;;5030659;28;45490;-60
2022/10/03 06:57:31;;;;;;;;;15.67;14.00;;;;;;;;5034329;28;45514;-60
2022/10/03 07:00:09;;;;;;;;;19.33;18.33;;;;;;;;5036275;28;46060;-61
2022/10/03 07:03:01;;;;;;;;;20.67;19.67;;;;;;;;5037255;28;45274;-60
2022/10/03 07:05:39;;;;;;;;;13.67;13.00;;;;;;;;5036993;28;45496;-62
2022/10/03 07:08:04;;;;;;;;;14.00;13.00;;;;;;;;5036100;28;45306;-62
2022/10/03 07:10:36;;;;;;;;;22.33;18.33;;;;;;;;5036343;28;46026;-61
2022/10/03 07:13:06;;;;;;;;;20.67;19.33;;;;;;;;5034807;28;45723;-60
2022/10/03 07:15:50;;;;;;;;;19.33;16.00;;;;;;;;5027779;28;45467;-61
2022/10/03 07:18:24;;;;;;;;;18.67;16.67;;;;;;;;5033511;28;45764;-61
2022/10/03 07:21:08;;;;;;;;;19.67;16.00;;;;;;;;5030271;28;46356;-61
2022/10/03 07:23:33;;;;;;;;;16.33;15.33;;;;;;;;5034221;28;45423;-62
2022/10/03 07:26:13;;;;;;;;;17.75;16.50;;;;;;;;5033973;28;47040;-62
2022/10/03 07:28:57;;;;;;;;;19.33;17.00;;;;;;;;5033639;28;45386;-61
2022/10/03 07:31:23;;;;;;;;;18.00;18.00;;;;;;;;5028574;28;45510;-60
2022/10/03 07:34:09;;;;;;;;;15.50;15.50;;;;;;;;5027883;28;45483;-60
2022/10/03 07:39:57;;;;;;;;;21.67;21.33;;;;;;;;5028872;28;45594;-61
2022/10/03 07:42:41;;;;;;;;;15.00;15.00;;;;;;;;5031783;28;46092;-60
2022/10/03 07:45:22;;;;;;;;;12.33;12.33;;;;;;;;5027966;28;45663;-61
2022/10/03 07:47:50;;;;;;;;;15.33;14.00;;;;;;;;5034522;28;45688;-61
2022/10/03 07:50:21;;;;;;;;;13.33;12.67;;;;;;;;5031775;28;45869;-61
2022/10/03 07:52:53;;;;;;;;;15.67;15.67;;;;;;;;5033808;28;45376;-65
2022/10/03 07:55:24;;;;;;;;;17.00;16.00;;;;;;;;5032624;28;45414;-61
2022/10/03 07:57:55;;;;;;;;;13.00;12.00;;;;;;;;5029652;28;46178;-62
2022/10/03 08:00:23;;;;;;;;;10.67;9.67;;;;;;;;5030200;28;45461;-61
2022/10/03 08:02:49;;;;;;;;;13.67;12.33;;;;;;;;5029218;28;46019;-61
2022/10/03 08:05:14;;;;;;;;;20.00;16.00;;;;;;;;5033826;28;45302;-60
2022/10/03 08:07:50;;;;;;;;;12.75;12.25;;;;;;;;5033606;28;45506;-61
2022/10/03 08:10:34;;;;;;;;;15.33;14.33;;;;;;;;5034444;28;45648;-61
2022/10/03 08:13:18;;;;;;;;;12.67;12.67;;;;;;;;5029043;28;46209;-61
2022/10/03 08:15:43;;;;;;;;;16.00;14.33;;;;;;;;5034281;28;45361;-60
2022/10/03 08:18:11;;;;;;;;;17.25;14.50;;;;;;;;5031805;28;45399;-61
2022/10/03 08:20:36;;;;;;;;;15.67;13.33;;;;;;;;5038084;28;45348;-60
2022/10/03 08:23:04;;;;;;;;;15.00;13.67;;;;;;;;5038298;28;45647;-61
2022/10/03 08:25:29;;;;;;;;;17.33;15.00;;;;;;;;5031224;28;45502;-61
2022/10/03 08:28:02;;;;;;;;;15.25;14.00;;;;;;;;5035372;28;45487;-61
2022/10/03 08:30:40;;;;;;;;;18.33;15.67;;;;;;;;5039789;28;45344;-61
2022/10/03 08:33:28;;;;;;;;;18.00;17.67;;;;;;;;5034653;28;45305;-61
2022/10/03 08:36:06;;;;;;;;;15.67;15.00;;;;;;;;5019943;28;45437;-61
2022/10/03 08:38:54;;;;;;;;;16.00;16.00;;;;;;;;5038198;28;45638;-61
2022/10/03 08:41:35;;;;;;;;;16.67;15.00;;;;;;;;5026191;28;46144;-61
2022/10/03 08:44:17;;;;;;;;;20.67;19.67;;;;;;;;5036348;28;45802;-61
2022/10/03 08:46:42;;;;;;;;;20.33;17.67;;;;;;;;5029602;28;45237;-61
2022/10/03 08:49:18;;;;;;;;;16.67;16.00;;;;;;;;5033157;28;45352;-61
2022/10/03 08:52:02;;;;;;;;;25.00;22.00;;;;;;;;5035636;28;45399;-61
2022/10/03 08:54:39;;;;;;;;;14.67;14.67;;;;;;;;5030171;28;45510;-61
2022/10/03 08:57:10;;;;;;;;;18.33;17.67;;;;;;;;5023356;28;45688;-60
2022/10/03 08:59:41;;;;;;;;;19.33;18.33;;;;;;;;5032231;28;45573;-61
2022/10/03 09:02:06;;;;;;;;;18.67;16.33;;;;;;;;5032698;28;45795;-61
2022/10/03 09:04:34;;;;;;;;;18.33;17.67;;;;;;;;5035702;28;45438;-61
2022/10/03 09:07:12;;;;;;;;;15.67;15.67;;;;;;;;5026385;28;45417;-61
2022/10/03 09:09:56;;;;;;;;;25.00;19.33;;;;;;;;5036642;28;45619;-60
2022/10/03 09:12:31;;;;;;;;;16.67;16.67;;;;;;;;5038909;28;45461;-60
2022/10/03 09:14:57;;;;;;;;;24.00;22.00;;;;;;;;5039962;28;45332;-61
2022/10/03 09:17:48;;;;;;;;;22.00;20.67;;;;;;;;5037128;28;45949;-61
2022/10/03 09:20:26;;;;;;;;;22.67;16.67;;;;;;;;5034148;28;45401;-60
2022/10/03 09:23:10;;;;;;;;;23.50;20.50;;;;;;;;5012466;28;46977;-61
2022/10/03 09:25:35;;;;;;;;;18.00;17.67;;;;;;;;5039110;28;45415;-62
2022/10/03 09:28:19;;;;;;;;;24.33;22.00;;;;;;;;5039922;28;45355;-61
2022/10/03 09:30:44;;;;;;;;;21.00;21.00;;;;;;;;5026085;28;45458;-62
2022/10/03 09:33:28;;;;;;;;;22.00;17.33;;;;;;;;5035576;28;45451;-60
2022/10/03 09:36:08;;;;;;;;;20.33;17.67;;;;;;;;5030840;28;46046;-61
2022/10/03 09:38:54;;;;;;;;;20.00;17.67;;;;;;;;5032189;28;46274;-61
2022/10/03 09:41:33;;;;;;;;;24.67;19.00;;;;;;;;5037377;28;45145;-61
2022/10/03 09:43:58;;;;;;;;;17.67;16.00;;;;;;;;5036779;28;45415;-61
2022/10/03 09:46:32;;;;;;;;;21.67;18.33;;;;;;;;5040297;28;45359;-61
2022/10/03 09:49:16;;;;;;;;;20.67;19.00;;;;;;;;5034361;28;45563;-61
2022/10/03 09:51:41;;;;;;;;;19.00;17.67;;;;;;;;5038159;28;45561;-61
2022/10/03 09:54:17;;;;;;;;;15.67;15.67;;;;;;;;5037442;28;45342;-61
2022/10/03 09:56:48;;;;;;;;;22.33;21.67;;;;;;;;5032213;28;45338;-61
2022/10/03 09:59:26;;;;;;;;;21.33;19.00;;;;;;;;5033311;28;45590;-61
2022/10/03 10:01:57;;;;;;;;;26.67;22.00;;;;;;;;5036893;28;45273;-61
2022/10/03 10:04:34;;;;;;;;;23.67;19.67;;;;;;;;5034350;28;45423;-61
2022/10/03 10:06:59;;;;;;;;;19.33;19.00;;;;;;;;5038300;28;46128;-61
2022/10/03 10:09:40;;;;;;;;;21.67;18.00;;;;;;;;5034122;28;45653;-61
2022/10/03 10:12:17;;;;;;;;;17.67;17.67;;;;;;;;5024887;28;45492;-61
2022/10/03 10:14:54;;;;;;;;;23.00;18.33;;;;;;;;5024247;28;45250;-60
2022/10/03 10:17:20;;;;;;;;;20.67;16.67;;;;;;;;5030849;28;45510;-62
2022/10/03 10:19:58;;;;;;;;;17.00;15.00;;;;;;;;5038087;28;45716;-62
2022/10/03 10:22:42;;;;;;;;;22.67;18.33;;;;;;;;5016555;28;45486;-62
2022/10/03 10:25:26;;;;;;;;;24.00;18.67;;;;;;;;5036603;28;45516;-62
2022/10/03 10:28:10;;;;;;;;;20.33;17.67;;;;;;;;5036142;28;45591;-62
2022/10/03 10:30:44;;;;;;;;;24.67;23.33;;;;;;;;5031904;28;45484;-60
2022/10/03 10:33:13;;;;;;;;;25.33;20.00;;;;;;;;5040761;28;45690;-61
2022/10/03 10:35:50;;;;;;;;;23.00;20.00;;;;;;;;5041058;28;45371;-62
2022/10/03 10:38:24;;;;;;;;;23.33;19.67;;;;;;;;5028516;28;45927;-63
2022/10/03 10:41:02;;;;;;;;;21.33;20.33;;;;;;;;5035072;28;45468;-62
2022/10/03 10:43:36;;;;;;;;;23.67;22.00;;;;;;;;5032741;28;45390;-61
2022/10/03 10:46:04;;;;;;;;;26.00;22.67;;;;;;;;5030020;28;45399;-62
2022/10/03 10:48:48;;;;;;;;;18.00;17.33;;;;;;;;5032494;28;46889;-63
2022/10/03 10:51:32;;;;;;;;;20.33;18.67;;;;;;;;5028937;28;45649;-62
2022/10/03 10:54:12;;;;;;;;;21.67;18.33;;;;;;;;5033690;28;45503;-62
2022/10/03 10:56:56;;;;;;;;;23.00;22.33;;;;;;;;5035801;28;45293;-62
2022/10/03 10:59:40;;;;;;;;;24.67;22.67;;;;;;;;5033413;28;45438;-62
2022/10/03 11:02:24;;;;;;;;;23.00;18.33;;;;;;;;5035432;28;45760;-62
2022/10/03 11:04:56;;;;;;;;;21.67;21.67;;;;;;;;5034061;28;45496;-63
2022/10/03 11:07:45;;;;;;;;;24.00;20.33;;;;;;;;5035280;28;45701;-62
2022/10/03 11:10:10;;;;;;;;;22.00;19.00;;;;;;;;5035938;28;45461;-62
2022/10/03 11:12:55;;;;;;;;;22.33;17.33;;;;;;;;5039446;28;45454;-62
2022/10/03 11:15:29;;;;;;;;;25.00;19.33;;;;;;;;5033682;28;45325;-61
2022/10/03 11:18:01;;;;;;;;;24.00;21.00;;;;;;;;5027634;28;45626;-61
2022/10/03 11:20:36;;;;;;;;;24.33;20.67;;;;;;;;5031741;28;46004;-62
2022/10/03 11:23:07;;;;;;;;;19.67;18.33;;;;;;;;5018667;28;45454;-62
2022/10/03 11:25:49;;;;;;;;;19.00;17.00;;;;;;;;5031958;28;45502;-62
2022/10/03 11:28:20;;;;;;;;;17.00;16.33;;;;;;;;5034931;28;45538;-61
2022/10/03 11:31:08;;;;;;;;;24.00;20.33;;;;;;;;5024007;28;46121;-62
2022/10/03 11:33:49;;;;;;;;;23.00;17.33;;;;;;;;5034950;28;45207;-62
2022/10/03 11:36:15;;;;;;;;;23.00;19.00;;;;;;;;5019161;28;45436;-63
2022/10/03 11:38:47;;;;;;;;;21.67;19.00;;;;;;;;5034212;28;45454;-62
2022/10/03 11:41:28;;;;;;;;;17.33;15.00;;;;;;;;5030432;28;46093;-62
2022/10/03 11:44:06;;;;;;;;;20.00;19.00;;;;;;;;5022122;28;45709;-63
2022/10/03 11:46:44;;;;;;;;;22.00;17.00;;;;;;;;5034366;28;45433;-62
2022/10/03 11:49:22;;;;;;;;;22.33;19.33;;;;;;;;5037674;28;45542;-63
2022/10/03 11:52:00;;;;;;;;;21.00;21.00;;;;;;;;5038158;28;45447;-63
2022/10/03 11:54:27;;;;;;;;;22.67;18.33;;;;;;;;5032430;28;45352;-62
2022/10/03 11:57:01;;;;;;;;;14.67;13.33;;;;;;;;5033866;28;45425;-62
2022/10/03 11:59:32;;;;;;;;;18.00;15.67;;;;;;;;5030718;28;45637;-62
2022/10/03 12:01:57;;;;;;;;;17.67;16.67;;;;;;;;5036997;28;46039;-62
2022/10/03 12:04:46;;;;;;;;;17.25;13.00;;;;;;;;5016384;28;45310;-62
2022/10/03 12:10:13;;;;;;;;;20.67;19.33;;;;;;;;5028952;28;45869;-62
2022/10/03 12:12:43;;;;;;;;;19.67;17.00;;;;;;;;5020160;28;46377;-62
2022/10/03 12:15:27;;;;;;;;;24.00;18.33;;;;;;;;5032300;28;45445;-62
2022/10/03 12:18:08;;;;;;;;;24.33;19.67;;;;;;;;5027614;28;45494;-62
2022/10/03 12:20:52;;;;;;;;;19.67;19.00;;;;;;;;5029593;28;45613;-62
2022/10/03 12:23:17;;;;;;;;;20.67;19.67;;;;;;;;5031286;28;45356;-62
2022/10/03 12:25:44;;;;;;;;;22.67;15.67;;;;;;;;5023048;28;45371;-62
2022/10/03 12:28:24;;;;;;;;;21.33;19.67;;;;;;;;5027293;28;46037;-61
2022/10/03 12:30:55;;;;;;;;;20.67;20.00;;;;;;;;5026999;28;45577;-61
2022/10/03 12:33:38;;;;;;;;;19.67;18.00;;;;;;;;5029033;28;46956;-61
2022/10/03 12:36:03;;;;;;;;;22.00;18.67;;;;;;;;5030439;28;45367;-62
2022/10/03 12:38:44;;;;;;;;;22.67;16.67;;;;;;;;5028306;28;45387;-62
2022/10/03 12:41:17;;;;;;;;;17.00;16.67;;;;;;;;5028687;28;45448;-62
2022/10/03 12:43:42;;;;;;;;;22.67;18.00;;;;;;;;5029254;28;46075;-62
2022/10/03 12:46:30;;;;;;;;;22.33;18.33;;;;;;;;5026321;28;45978;-62
2022/10/03 12:49:21;;;;;;;;;17.00;15.33;;;;;;;;5019095;28;45835;-62
2022/10/03 12:51:51;;;;;;;;;18.00;14.00;;;;;;;;5021758;28;45833;-61
2022/10/03 12:54:27;;;;;;;;;22.00;17.33;;;;;;;;5012033;28;46800;-62
2022/10/03 12:57:01;;;;;;;;;20.67;17.33;;;;;;;;5028616;28;45612;-61
2022/10/03 12:59:32;;;;;;;;;20.67;18.00;;;;;;;;5026841;28;45418;-62
2022/10/03 13:02:19;;;;;;;;;17.33;14.00;;;;;;;;5030138;28;45680;-61
2022/10/03 13:04:51;;;;;;;;;18.67;17.33;;;;;;;;5030632;28;46367;-61
2022/10/03 13:07:19;;;;;;;;;16.00;15.67;;;;;;;;5032199;28;46554;-61
2022/10/03 13:09:45;;;;;;;;;10.67;10.67;;;;;;;;5032983;28;45647;-62
2022/10/03 13:12:30;;;;;;;;;17.00;12.00;;;;;;;;5032784;28;45438;-61
2022/10/03 13:15:15;;;;;;;;;15.00;14.00;;;;;;;;5030640;28;45505;-62
2022/10/03 13:17:49;;;;;;;;;15.00;11.00;;;;;;;;5028607;28;45840;-61
2022/10/03 13:20:21;;;;;;;;;14.33;13.33;;;;;;;;5033550;28;45494;-62
2022/10/03 13:22:52;;;;;;;;;18.67;14.67;;;;;;;;5032094;28;45607;-61
2022/10/03 13:25:23;;;;;;;;;16.00;14.00;;;;;;;;5031562;28;46266;-62
2022/10/03 13:27:50;;;;;;;;;12.33;11.00;;;;;;;;5020398;28;46015;-62
2022/10/03 13:30:24;;;;;;;;;15.67;15.67;;;;;;;;5047205;28;45413;-61
2022/10/03 13:32:54;;;;;;;;;16.33;14.33;;;;;;;;5029118;28;45253;-61
2022/10/03 13:38:10;;;;;;;;;18.33;17.00;;;;;;;;5035995;28;45541;-62
2022/10/03 13:40:39;;;;;;;;;20.33;17.33;;;;;;;;5027950;28;45451;-61
2022/10/03 13:43:10;;;;;;;;;20.00;18.00;;;;;;;;5038923;28;45493;-61
2022/10/03 13:45:38;;;;;;;;;17.67;14.00;;;;;;;;5037785;28;46942;-61
2022/10/03 13:48:07;;;;;;;;;15.33;14.33;;;;;;;;5025678;28;45289;-62
2022/10/03 13:53:26;;;;;;;;;12.67;11.67;;;;;;;;5213340;22;45491;-59
2022/10/03 13:56:00;;;;;;;;;15.33;12.33;;;;;;;;5019614;28;46370;-59
2022/10/03 13:58:25;;;;;;;;;11.00;10.00;;;;;;;;5016684;28;48143;-59
2022/10/03 14:00:56;;;;;;;;;14.33;11.33;;;;;;;;5020554;28;45488;-60
2022/10/03 14:03:29;;;;;;;;;15.00;15.00;;;;;;;;5021194;28;46064;-57
2022/10/03 14:05:55;;;;;;;;;19.00;16.00;;;;;;;;5022712;28;48125;-58
2022/10/03 14:08:27;;;;;;;;;9.67;9.67;;;;;;;;5020642;28;45924;-60
2022/10/03 14:10:52;;;;;;;;;15.67;14.67;;;;;;;;5021769;28;45632;-59
2022/10/03 14:13:36;;;;;;;;;17.33;15.67;;;;;;;;5020436;28;45899;-59
2022/10/03 14:16:10;;;;;;;;;15.33;15.33;;;;;;;;5020885;28;45510;-59
2022/10/03 14:18:43;;;;;;;;;17.67;16.33;;;;;;;;5021257;28;45580;-60
2022/10/03 14:21:27;;;;;;;;;17.33;15.33;;;;;;;;5032462;28;45494;-60
2022/10/03 14:24:11;;;;;;;;;17.00;13.33;;;;;;;;5026671;28;45543;-59
2022/10/03 14:26:40;;;;;;;;;13.00;13.00;;;;;;;;5036637;28;45468;-59
2022/10/03 14:29:24;;;;;;;;;18.00;13.67;;;;;;;;5036763;28;45324;-59
2022/10/03 14:32:04;;;;;;;;;16.33;15.00;;;;;;;;5018490;28;45563;-59
2022/10/03 14:34:37;;;;;;;;;14.33;14.33;;;;;;;;5022125;28;45546;-59
2022/10/03 14:37:12;;;;;;;;;16.33;15.00;;;;;;;;5020723;28;46477;-59
2022/10/03 14:39:39;;;;;;;;;17.00;13.00;;;;;;;;5021061;28;45406;-60
2022/10/03 14:42:14;;;;;;;;;14.33;13.33;;;;;;;;5020896;28;45851;-60
2022/10/03 14:44:42;;;;;;;;;17.33;15.33;;;;;;;;5020203;28;45690;-59
2022/10/03 14:47:09;;;;;;;;;20.67;12.67;;;;;;;;5020326;28;46093;-59
2022/10/03 14:49:36;;;;;;;;;14.67;10.67;;;;;;;;5021046;28;45654;-60
2022/10/03 14:52:10;;;;;;;;;24.33;19.33;;;;;;;;5023852;28;45600;-59
2022/10/03 14:54:38;;;;;;;;;14.00;12.00;;;;;;;;5024263;28;45934;-60
2022/10/03 14:57:22;;;;;;;;;15.00;14.67;;;;;;;;5005300;28;47355;-60
2022/10/03 14:59:51;;;;;;;;;15.67;14.33;;;;;;;;5021119;28;45679;-59
2022/10/03 15:02:24;;;;;;;;;12.00;12.00;;;;;;;;5023708;28;45738;-60
2022/10/03 15:04:52;;;;;;;;;13.00;13.00;;;;;;;;5022396;28;47678;-60
2022/10/03 15:07:31;;;;;;;;;13.67;13.67;;;;;;;;5003957;28;45648;-60
2022/10/03 15:09:57;;;;;;;;;10.00;10.00;;;;;;;;5019854;28;45774;-59
2022/10/03 15:12:25;;;;;;;;;13.67;11.33;;;;;;;;5020774;28;48447;-60
2022/10/03 15:15:00;;;;;;;;;14.33;12.33;;;;;;;;5020251;28;45674;-60
2022/10/03 15:17:27;;;;;;;;;12.67;10.00;;;;;;;;5024322;28;46531;-61
2022/10/03 15:19:56;;;;;;;;;9.33;8.33;;;;;;;;5029824;28;45517;-59
2022/10/03 15:22:21;;;;;;;;;11.33;9.00;;;;;;;;5027781;28;45586;-60
2022/10/03 15:24:47;;;;;;;;;11.67;10.00;;;;;;;;5031189;28;46097;-60
2022/10/03 15:27:20;;;;;;;;;15.00;13.00;;;;;;;;5010252;28;47817;-61
2022/10/03 15:29:50;;;;;;;;;15.33;12.67;;;;;;;;5007530;28;45747;-60
2022/10/03 15:32:26;;;;;;;;;12.00;10.67;;;;;;;;5028790;28;45584;-60
2022/10/03 15:34:54;;;;;;;;;11.67;10.33;;;;;;;;5017319;28;46194;-60
2022/10/03 15:37:21;;;;;;;;;11.00;11.00;;;;;;;;5017563;28;47208;-60
2022/10/03 15:39:51;;;;;;;;;10.00;10.00;;;;;;;;5017862;28;46646;-60
2022/10/03 15:42:16;;;;;;;;;10.33;10.33;;;;;;;;5018958;28;45768;-58
2022/10/03 15:45:04;;;;;;;;;9.33;9.33;;;;;;;;5016626;28;45822;-59
2022/10/03 15:47:33;;;;;;;;;11.67;10.00;;;;;;;;5021611;28;46680;-59
2022/10/03 15:49:59;;;;;;;;;13.00;13.00;;;;;;;;5018134;28;46512;-60
2022/10/03 15:52:51;;;;;;;;;8.67;7.00;;;;;;;;4999609;28;45976;-59
2022/10/03 15:55:33;;;;;;;;;13.33;13.33;;;;;;;;5019805;28;45502;-60
2022/10/03 15:58:07;;;;;;;;;11.67;11.67;;;;;;;;5020565;28;48963;-61
2022/10/03 16:00:35;;;;;;;;;13.00;12.33;;;;;;;;5019284;28;46049;-60
2022/10/03 16:03:13;;;;;;;;;11.67;9.33;;;;;;;;5019589;28;45585;-61
2022/10/03 16:06:01;;;;;;;;;16.00;12.33;;;;;;;;5022068;28;46110;-61
2022/10/03 16:08:29;;;;;;;;;0.00;0.00;;;;;;;;5020166;28;45549;-60
2022/10/03 16:11:14;;;;;;;;;14.33;12.33;;;;;;;;5020728;28;45679;-60
2022/10/03 16:13:43;;;;;;;;;11.33;10.67;;;;;;;;5018361;28;47538;-60
2022/10/03 16:16:11;;;;;;;;;12.00;10.33;;;;;;;;5000769;28;45578;-61
2022/10/03 16:18:47;;;;;;;;;14.33;12.67;;;;;;;;5021332;28;46209;-59
2022/10/03 16:21:15;;;;;;;;;13.67;13.00;;;;;;;;5023494;28;45726;-60
2022/10/03 16:23:44;;;;;;;;;14.00;12.67;;;;;;;;5020190;28;45520;-60
2022/10/03 16:26:12;;;;;;;;;9.67;9.67;;;;;;;;5030675;28;45904;-60
2022/10/03 16:28:38;;;;;;;;;12.00;11.67;;;;;;;;5023888;28;46928;-62
2022/10/03 16:31:03;;;;;;;;;17.33;12.00;;;;;;;;5027674;28;45595;-60
2022/10/03 16:33:37;;;;;;;;;13.33;11.33;;;;;;;;5029161;28;45506;-60
2022/10/03 16:36:07;;;;;;;;;13.33;11.67;;;;;;;;5028029;28;45803;-59
2022/10/03 16:38:36;;;;;;;;;12.00;12.00;;;;;;;;5029941;28;47976;-59
2022/10/03 16:41:14;;;;;;;;;18.67;13.33;;;;;;;;5011675;28;45354;-60
2022/10/03 16:43:40;;;;;;;;;13.00;12.00;;;;;;;;5032364;28;45516;-61
2022/10/03 16:46:18;;;;;;;;;15.00;11.67;;;;;;;;5023693;28;45443;-59
2022/10/03 16:51:35;;;;;;;;;13.67;13.67;;;;;;;;5031989;28;46010;-61
2022/10/03 16:54:02;;;;;;;;;12.00;12.00;;;;;;;;5036436;28;45461;-61
2022/10/03 16:56:34;;;;;;;;;14.00;14.00;;;;;;;;5034587;28;45578;-60
2022/10/03 16:59:03;;;;;;;;;15.00;12.33;;;;;;;;5033063;28;46115;-60
2022/10/03 17:01:28;;;;;;;;;13.33;11.67;;;;;;;;5033670;28;45636;-61
2022/10/03 17:03:55;;;;;;;;;12.33;9.67;;;;;;;;5033483;28;45456;-61
2022/10/03 17:06:25;;;;;;;;;13.00;12.33;;;;;;;;5033251;28;45522;-61
2022/10/03 17:08:52;;;;;;;;;14.67;13.33;;;;;;;;5027620;28;46425;-60
2022/10/03 17:11:20;;;;;;;;;13.67;11.67;;;;;;;;5033128;28;46522;-60
2022/10/03 17:13:47;;;;;;;;;8.33;7.33;;;;;;;;5026388;28;45458;-59
2022/10/03 17:16:19;;;;;;;;;10.33;10.33;;;;;;;;5017177;28;45595;-61
2022/10/03 17:19:07;;;;;;;;;14.33;13.00;;;;;;;;5027791;28;46624;-60
2022/10/03 17:21:33;;;;;;;;;11.33;11.00;;;;;;;;5029534;28;45577;-61
2022/10/03 17:24:07;;;;;;;;;13.00;12.00;;;;;;;;5027076;28;45352;-60
2022/10/03 17:26:36;;;;;;;;;14.33;11.67;;;;;;;;5028824;28;45515;-60
2022/10/03 17:29:17;;;;;;;;;12.67;12.00;;;;;;;;5024763;28;45924;-60
2022/10/03 17:31:45;;;;;;;;;12.33;12.33;;;;;;;;5031488;28;45659;-60
2022/10/03 17:34:10;;;;;;;;;14.00;14.00;;;;;;;;5030859;28;46546;-61
2022/10/03 17:36:45;;;;;;;;;12.00;10.67;;;;;;;;5026585;28;46148;-60
2022/10/03 17:39:26;;;;;;;;;14.00;11.67;;;;;;;;5029038;28;46162;-60
2022/10/03 17:41:58;;;;;;;;;18.00;14.33;;;;;;;;5029626;28;45702;-60
2022/10/03 17:44:23;;;;;;;;;16.33;16.33;;;;;;;;5033449;28;45586;-60
2022/10/03 17:46:57;;;;;;;;;13.67;10.67;;;;;;;;5029124;28;45550;-60
2022/10/03 17:49:39;;;;;;;;;15.67;15.00;;;;;;;;5033350;28;45478;-60
2022/10/03 17:52:10;;;;;;;;;14.67;13.33;;;;;;;;5027246;28;45532;-61
2022/10/03 17:54:37;;;;;;;;;14.33;12.33;;;;;;;;5031423;28;45450;-62
2022/10/03 17:57:15;;;;;;;;;14.33;14.00;;;;;;;;5030779;28;45473;-60
2022/10/03 17:59:45;;;;;;;;;20.67;16.00;;;;;;;;5029355;28;45933;-60
2022/10/03 18:02:20;;;;;;;;;15.00;13.00;;;;;;;;5027890;28;45523;-59
2022/10/03 18:04:47;;;;;;;;;17.33;13.00;;;;;;;;5027524;28;45678;-60
2022/10/03 18:07:21;;;;;;;;;15.33;14.33;;;;;;;;5029324;28;45814;-59
2022/10/03 18:09:48;;;;;;;;;17.33;15.00;;;;;;;;5030495;28;46144;-61
2022/10/03 18:12:29;;;;;;;;;18.33;12.00;;;;;;;;5030858;28;45435;-60
2022/10/03 18:14:54;;;;;;;;;17.33;15.67;;;;;;;;5028951;28;45540;-60
2022/10/03 18:17:26;;;;;;;;;17.67;14.33;;;;;;;;5015060;28;46004;-60
2022/10/03 18:20:04;;;;;;;;;20.33;19.33;;;;;;;;5026219;28;46009;-61
2022/10/03 18:22:30;;;;;;;;;16.33;14.67;;;;;;;;5025467;28;45771;-60
2022/10/03 18:24:55;;;;;;;;;16.67;15.00;;;;;;;;5026852;28;45436;-60
2022/10/03 18:27:39;;;;;;;;;22.00;18.33;;;;;;;;5029655;28;46420;-60
2022/10/03 18:30:13;;;;;;;;;19.67;19.00;;;;;;;;5024833;28;46199;-61
2022/10/03 18:32:39;;;;;;;;;21.67;18.33;;;;;;;;5027226;28;45582;-60
2022/10/03 18:35:08;;;;;;;;;20.33;18.33;;;;;;;;5026611;28;45736;-60
2022/10/03 18:37:39;;;;;;;;;23.00;20.33;;;;;;;;5028028;28;45709;-60
2022/10/03 18:40:12;;;;;;;;;22.33;21.00;;;;;;;;5026930;28;45783;-60
2022/10/03 18:42:38;;;;;;;;;23.33;19.67;;;;;;;;5027454;28;45832;-60
2022/10/03 18:45:04;;;;;;;;;23.00;21.00;;;;;;;;5027822;28;45418;-59
2022/10/03 18:47:40;;;;;;;;;23.00;19.67;;;;;;;;5027499;28;45922;-60
2022/10/03 18:50:12;;;;;;;;;23.67;23.67;;;;;;;;5026250;28;46562;-60
2022/10/03 18:52:51;;;;;;;;;22.33;18.67;;;;;;;;5025416;28;45668;-60
2022/10/03 18:55:33;;;;;;;;;28.33;24.33;;;;;;;;5025495;28;46427;-60
2022/10/03 18:58:15;;;;;;;;;29.67;24.33;;;;;;;;5027175;28;45706;-60
2022/10/03 19:00:46;;;;;;;;;23.67;22.33;;;;;;;;5025393;28;46561;-59
2022/10/03 19:03:14;;;;;;;;;32.00;25.33;;;;;;;;5029112;28;45518;-59
2022/10/03 19:06:03;;;;;;;;;27.33;27.33;;;;;;;;5023374;28;48432;-61
2022/10/03 19:08:34;;;;;;;;;32.33;27.00;;;;;;;;5013979;28;45831;-60
2022/10/03 19:11:18;;;;;;;;;29.67;29.67;;;;;;;;5027884;28;46247;-60
2022/10/03 19:13:55;;;;;;;;;31.33;28.00;;;;;;;;5019123;28;46576;-61
2022/10/03 19:16:21;;;;;;;;;26.33;25.00;;;;;;;;5021994;28;45667;-60
2022/10/03 19:18:56;;;;;;;;;30.00;26.67;;;;;;;;5025550;28;46483;-59
2022/10/03 19:21:21;;;;;;;;;29.33;25.67;;;;;;;;5021148;28;46341;-61
2022/10/03 19:24:11;;;;;;;;;32.67;29.67;;;;;;;;5019911;28;46137;-59
2022/10/03 19:26:37;;;;;;;;;28.33;27.00;;;;;;;;5021079;28;45552;-59
2022/10/03 19:29:13;;;;;;;;;28.67;26.33;;;;;;;;5016668;28;45839;-60
2022/10/03 19:31:40;;;;;;;;;39.33;29.67;;;;;;;;5003141;28;47152;-60
2022/10/03 19:34:20;;;;;;;;;39.00;32.33;;;;;;;;5005988;28;45816;-60
2022/10/03 19:36:47;;;;;;;;;45.33;35.00;;;;;;;;5020931;28;46625;-61
2022/10/03 19:39:14;;;;;;;;;41.33;34.33;;;;;;;;5024662;28;45690;-61
2022/10/03 19:41:51;;;;;;;;;44.33;35.00;;;;;;;;5021677;28;46291;-60
2022/10/03 19:44:17;;;;;;;;;46.33;39.00;;;;;;;;5020974;28;46609;-59